Time;durP1;ratioP1;P1;durP2;ratioP2;P2;SDS_P1;SDS_P2;PMS_P1;PMS_P2;Temp;Humidity;BMP_temperature;BMP_pressure;BME280_temperature;BME280_humidity;BME280_pressure;Samples;Min_cycle;Max_cycle;Signal;HPM_P1;HPM_P2
2022/03/04 00:01:14;;;;;;;13.37;6.87;;;;;;;6.19;61.44;99947.75;5023095;28;20213;-77
2022/03/04 00:03:42;;;;;;;8.83;4.63;;;;;;;6.27;61.92;99952.31;5030793;28;20251;-76
2022/03/04 00:06:09;;;;;;;15.17;9.43;;;;;;;6.25;61.27;99953.94;5031888;28;20185;-76
2022/03/04 00:08:36;;;;;;;16.07;7.97;;;;;;;6.32;61.50;99948.16;5032192;28;20203;-77
2022/03/04 00:11:03;;;;;;;14.27;8.77;;;;;;;6.28;60.20;99941.16;5013475;28;20197;-76
2022/03/04 00:13:30;;;;;;;19.07;10.60;;;;;;;6.33;59.94;99947.31;5019440;28;20211;-77
2022/03/04 00:15:57;;;;;;;17.97;9.80;;;;;;;6.34;59.96;99943.94;5026383;28;20220;-77
2022/03/04 00:18:24;;;;;;;19.27;10.43;;;;;;;6.35;59.56;99950.81;5013724;28;20204;-76
2022/03/04 00:20:52;;;;;;;15.90;10.13;;;;;;;6.36;59.68;99939.69;5013622;28;20700;-76
2022/03/04 00:23:20;;;;;;;9.03;5.63;;;;;;;6.39;60.19;99947.50;5013219;28;20212;-77
2022/03/04 00:25:47;;;;;;;9.60;5.70;;;;;;;6.36;59.93;99937.09;5014275;28;20193;-76
2022/03/04 00:28:14;;;;;;;16.70;10.53;;;;;;;6.35;59.68;99939.66;5013078;28;20638;-75
2022/03/04 00:30:40;;;;;;;10.33;5.87;;;;;;;6.33;60.05;99926.72;5026205;28;20211;-77
2022/03/04 00:33:07;;;;;;;22.17;11.43;;;;;;;6.32;59.28;99934.41;5012895;28;20196;-76
2022/03/04 00:35:34;;;;;;;16.00;9.20;;;;;;;6.04;59.09;99886.38;5014245;28;20667;-76
2022/03/04 00:38:02;;;;;;;16.43;9.47;;;;;;;6.37;59.11;99932.84;5032685;28;20200;-77
2022/03/04 00:40:29;;;;;;;17.63;9.63;;;;;;;6.35;57.99;99929.38;5028703;28;20278;-76
2022/03/04 00:42:56;;;;;;;14.87;8.97;;;;;;;6.28;58.80;99917.97;5015713;28;20189;-76
2022/03/04 00:45:23;;;;;;;21.63;10.77;;;;;;;6.30;58.93;99923.19;5031023;28;20205;-76
2022/03/04 00:47:50;;;;;;;13.20;6.53;;;;;;;6.34;58.67;99925.91;5012607;28;20233;-76
2022/03/04 00:50:17;;;;;;;22.03;9.23;;;;;;;6.40;58.69;99931.22;5025787;28;20623;-76
2022/03/04 00:52:43;;;;;;;22.73;10.67;;;;;;;6.32;59.03;99935.28;5030335;28;20195;-75
2022/03/04 00:55:12;;;;;;;15.93;9.13;;;;;;;6.35;59.22;99930.22;5012674;28;20196;-76
2022/03/04 00:57:38;;;;;;;26.80;5.40;;;;;;;6.27;58.66;99915.38;5029994;28;20192;-76
2022/03/04 01:00:07;;;;;;;20.27;10.80;;;;;;;6.41;58.41;99927.84;5024841;28;20690;-76
2022/03/04 01:02:33;;;;;;;22.63;11.33;;;;;;;6.32;58.54;99924.09;5018707;28;20710;-75
2022/03/04 01:05:00;;;;;;;14.80;8.67;;;;;;;6.19;58.69;99888.53;5017451;28;20207;-76
2022/03/04 01:07:27;;;;;;;18.53;10.03;;;;;;;6.25;58.58;99902.44;5014209;28;20209;-76
2022/03/04 01:09:54;;;;;;;19.57;9.33;;;;;;;6.39;58.35;99919.16;5030053;28;20200;-78
2022/03/04 01:12:22;;;;;;;20.87;10.87;;;;;;;6.50;57.66;99922.06;5028318;28;20202;-76
2022/03/04 01:14:51;;;;;;;16.93;10.23;;;;;;;6.49;58.19;99921.19;5029979;28;20642;-76
2022/03/04 01:17:18;;;;;;;17.60;11.17;;;;;;;6.39;57.62;99920.88;5016215;28;20200;-76
2022/03/04 01:19:45;;;;;;;17.43;9.50;;;;;;;6.32;57.54;99893.19;5021469;28;20204;-75
2022/03/04 01:22:12;;;;;;;18.73;10.63;;;;;;;6.48;58.26;99922.03;5012115;28;20770;-76
2022/03/04 01:24:38;;;;;;;17.80;7.77;;;;;;;6.42;57.58;99903.81;5012226;28;20208;-76
2022/03/04 01:27:05;;;;;;;20.13;10.03;;;;;;;6.45;58.44;99916.78;5025472;28;20702;-76
2022/03/04 01:29:33;;;;;;;21.53;8.77;;;;;;;6.38;58.26;99881.41;5030171;28;20720;-76
2022/03/04 01:32:00;;;;;;;15.77;9.73;;;;;;;6.37;57.09;99909.66;5015025;28;20211;-76
2022/03/04 01:34:27;;;;;;;19.80;9.87;;;;;;;6.55;57.89;99909.31;5011335;28;20196;-75
2022/03/04 01:36:54;;;;;;;16.70;9.80;;;;;;;6.53;57.41;99916.97;5023804;28;20196;-76
2022/03/04 01:39:20;;;;;;;15.70;9.43;;;;;;;6.44;57.22;99919.31;5020025;28;20193;-76
2022/03/04 01:41:47;;;;;;;17.87;10.50;;;;;;;6.21;58.01;99885.16;5017020;28;20770;-75
2022/03/04 01:44:14;;;;;;;9.37;6.13;;;;;;;6.35;58.69;99909.59;5032528;28;20200;-76
2022/03/04 01:46:42;;;;;;;15.87;10.03;;;;;;;6.28;57.90;99897.38;5030083;28;20611;-76
2022/03/04 01:49:09;;;;;;;11.87;6.77;;;;;;;6.38;57.80;99904.56;5013373;28;20676;-76
2022/03/04 01:51:36;;;;;;;21.17;10.57;;;;;;;6.44;57.91;99909.88;5013787;28;20200;-76
2022/03/04 01:54:03;;;;;;;13.20;7.93;;;;;;;6.43;56.38;99891.81;5013195;28;20200;-76
2022/03/04 01:56:30;;;;;;;19.40;10.70;;;;;;;6.54;57.07;99905.88;5019869;28;20576;-76
2022/03/04 01:58:56;;;;;;;14.10;5.90;;;;;;;6.56;57.44;99909.38;5022324;28;20204;-76
2022/03/04 02:01:24;;;;;;;17.10;9.47;;;;;;;6.36;57.76;99882.16;5028895;28;20216;-76
2022/03/04 02:03:52;;;;;;;17.33;9.93;;;;;;;6.62;57.47;99913.81;5018389;28;20211;-76
2022/03/04 02:06:19;;;;;;;16.17;10.73;;;;;;;6.27;57.94;99864.78;5017955;28;20192;-76
2022/03/04 02:08:46;;;;;;;17.63;10.47;;;;;;;6.54;57.85;99915.28;5031867;28;20196;-76
2022/03/04 02:11:13;;;;;;;16.30;9.83;;;;;;;6.39;57.89;99906.28;5023563;28;20204;-76
2022/03/04 02:13:40;;;;;;;18.93;9.43;;;;;;;6.47;58.62;99920.28;5012696;28;20205;-76
2022/03/04 02:16:14;;;;;;;19.43;10.87;;;;;;;6.63;59.07;99923.28;5017075;28;20200;-76
2022/03/04 02:18:40;;;;;;;19.50;10.33;;;;;;;6.06;61.18;99889.91;5013489;28;20700;-76
2022/03/04 02:21:11;;;;;;;16.77;10.33;;;;;;;6.25;63.41;99922.16;5027331;28;20215;-76
2022/03/04 02:23:39;;;;;;;18.00;10.70;;;;;;;6.33;64.41;99925.84;5011772;28;20642;-76
2022/03/04 02:26:06;;;;;;;20.30;10.93;;;;;;;6.29;68.34;99914.59;5015336;28;20720;-76
2022/03/04 02:28:32;;;;;;;18.87;10.70;;;;;;;6.32;69.06;99926.66;5028889;28;20215;-76
2022/03/04 02:30:59;;;;;;;18.10;10.63;;;;;;;5.97;72.10;99907.63;5012781;28;20239;-75
2022/03/04 02:33:26;;;;;;;21.07;11.40;;;;;;;5.86;75.79;99903.84;5030832;28;20208;-76
2022/03/04 02:35:53;;;;;;;18.13;11.47;;;;;;;6.01;78.11;99932.63;5030159;28;20208;-78
2022/03/04 02:38:20;;;;;;;16.83;11.30;;;;;;;5.70;80.25;99881.03;5031148;28;20200;-77
2022/03/04 02:40:48;;;;;;;65.70;35.47;;;;;;;5.98;81.62;99924.81;5027265;28;20205;-76
2022/03/04 02:43:15;;;;;;;20.10;12.27;;;;;;;5.46;84.73;99857.97;5017563;28;20199;-76
2022/03/04 02:45:42;;;;;;;24.27;12.90;;;;;;;5.65;85.13;99900.56;5034458;28;20262;-76
2022/03/04 02:48:08;;;;;;;29.67;15.77;;;;;;;5.86;86.68;99935.59;5034979;28;20629;-76
2022/03/04 02:50:35;;;;;;;36.33;16.43;;;;;;;5.93;86.10;99934.06;5027559;28;20712;-76
2022/03/04 02:53:02;;;;;;;31.03;15.37;;;;;;;5.85;87.94;99925.22;5028777;28;20652;-76
2022/03/04 02:55:29;;;;;;;24.97;14.87;;;;;;;5.88;88.73;99925.34;5024270;28;20203;-75
2022/03/04 02:57:57;;;;;;;31.60;16.00;;;;;;;5.89;89.78;99920.25;5034331;28;20196;-75
2022/03/04 03:00:24;;;;;;;22.80;12.27;;;;;;;5.89;90.14;99924.50;5033844;28;20632;-76
2022/03/04 03:02:51;;;;;;;21.60;13.23;;;;;;;5.83;89.60;99932.00;5026370;28;20228;-75
2022/03/04 03:05:18;;;;;;;27.33;13.60;;;;;;;5.75;86.06;99930.88;5014368;28;20602;-76
2022/03/04 03:07:44;;;;;;;29.33;14.63;;;;;;;5.76;77.77;99932.66;5014827;28;20272;-77
2022/03/04 03:10:12;;;;;;;22.40;12.33;;;;;;;5.92;76.55;99932.34;5025098;28;20646;-76
2022/03/04 03:12:41;;;;;;;24.07;12.93;;;;;;;5.91;73.06;99916.03;5015300;28;20591;-75
2022/03/04 03:15:11;;;;;;;19.50;8.87;;;;;;;5.93;68.90;99923.78;5015464;28;20197;-76
2022/03/04 03:17:38;;;;;;;22.60;11.10;;;;;;;5.91;66.68;99931.47;5014231;28;20197;-76
2022/03/04 03:20:07;;;;;;;21.00;11.50;;;;;;;5.96;65.46;99929.88;5014588;28;20196;-76
2022/03/04 03:22:33;;;;;;;24.47;11.93;;;;;;;5.94;64.83;99931.56;5030423;28;20224;-76
2022/03/04 03:25:00;;;;;;;22.10;11.53;;;;;;;6.09;64.54;99930.28;5032395;28;20192;-76
2022/03/04 03:27:27;;;;;;;24.43;12.10;;;;;;;5.90;64.66;99928.84;5033754;28;20199;-76
2022/03/04 03:29:54;;;;;;;21.13;10.63;;;;;;;5.77;63.84;99890.66;5019895;28;20201;-75
2022/03/04 03:32:22;;;;;;;20.77;11.67;;;;;;;5.96;63.42;99918.72;5027407;28;20250;-75
2022/03/04 03:34:49;;;;;;;22.93;13.07;;;;;;;5.96;63.68;99919.59;5031588;28;20193;-76
2022/03/04 03:37:16;;;;;;;20.93;11.60;;;;;;;6.03;62.81;99922.38;5033980;28;20200;-76
2022/03/04 03:39:43;;;;;;;12.77;7.23;;;;;;;5.92;63.04;99915.19;5033505;28;20192;-76
2022/03/04 03:42:10;;;;;;;24.40;12.50;;;;;;;5.94;62.15;99915.25;5027508;28;20235;-77
2022/03/04 03:44:37;;;;;;;22.30;11.93;;;;;;;5.90;62.34;99928.84;5017538;28;20193;-76
2022/03/04 03:47:04;;;;;;;21.87;11.63;;;;;;;5.95;62.32;99924.72;5014782;28;20674;-76
2022/03/04 03:49:32;;;;;;;21.67;11.43;;;;;;;5.98;62.03;99923.13;5017340;28;20263;-76
2022/03/04 03:51:59;;;;;;;22.50;11.80;;;;;;;5.84;62.22;99911.50;5025329;28;20204;-76
2022/03/04 03:54:26;;;;;;;25.27;12.63;;;;;;;5.75;62.07;99895.75;5032954;28;20201;-76
2022/03/04 03:56:53;;;;;;;26.60;11.97;;;;;;;5.98;62.41;99922.22;5030443;28;20230;-76
2022/03/04 03:59:20;;;;;;;20.80;10.53;;;;;;;5.95;61.54;99929.88;5016456;28;20683;-76
2022/03/04 04:01:46;;;;;;;17.50;10.13;;;;;;;5.85;61.70;99914.94;5022899;28;20227;-76
2022/03/04 04:04:13;;;;;;;21.27;11.73;;;;;;;5.94;61.75;99921.25;5013552;28;20204;-76
2022/03/04 04:06:43;;;;;;;20.53;11.00;;;;;;;5.94;61.74;99922.97;5013466;28;20680;-76
2022/03/04 04:09:10;;;;;;;131.40;54.00;;;;;;;6.10;100.00;99896.84;5032342;28;20510;-74
2022/03/04 04:11:38;;;;;;;35.13;18.20;;;;;;;6.24;71.65;99915.31;5028165;28;20975;-76
2022/03/04 04:14:06;;;;;;;22.13;13.43;;;;;;;6.01;65.42;99917.19;5016340;28;20196;-75
2022/03/04 04:16:33;;;;;;;25.00;11.80;;;;;;;5.85;64.90;99920.09;5030370;28;20690;-76
2022/03/04 04:19:00;;;;;;;24.20;12.47;;;;;;;5.78;64.15;99915.56;5033079;28;20199;-75
2022/03/04 04:21:28;;;;;;;27.17;13.67;;;;;;;5.75;64.09;99920.59;5026343;28;20263;-76
2022/03/04 04:23:57;;;;;;;25.70;12.80;;;;;;;5.59;63.34;99901.25;5013678;28;20204;-75
2022/03/04 04:26:24;;;;;;;22.87;10.73;;;;;;;5.66;62.81;99923.78;5015421;28;20325;-75
2022/03/04 04:28:51;;;;;;;25.43;11.97;;;;;;;5.50;63.23;99906.97;5026810;28;20195;-76
2022/03/04 04:31:19;;;;;;;22.40;11.20;;;;;;;5.54;63.55;99932.78;5025312;28;20283;-76
2022/03/04 04:33:46;;;;;;;22.60;10.30;;;;;;;5.50;63.78;99929.22;5031152;28;20285;-76
2022/03/04 04:36:12;;;;;;;29.77;13.33;;;;;;;5.49;62.62;99941.22;5027310;28;20193;-76
2022/03/04 04:38:39;;;;;;;22.57;8.97;;;;;;;5.30;63.40;99928.59;5021181;28;21566;-76
2022/03/04 04:41:07;;;;;;;25.33;13.13;;;;;;;5.27;62.34;99933.63;5023329;28;20197;-77
2022/03/04 04:43:34;;;;;;;27.43;13.10;;;;;;;5.29;62.49;99941.38;5021867;28;20224;-75
2022/03/04 04:46:01;;;;;;;15.57;7.20;;;;;;;5.27;62.30;99943.03;5025971;28;20209;-77
2022/03/04 04:48:28;;;;;;;30.23;13.93;;;;;;;5.32;62.10;99952.63;5012594;28;20228;-76
2022/03/04 04:50:55;;;;;;;29.03;13.50;;;;;;;5.22;63.54;99949.72;5014781;28;20189;-76
2022/03/04 04:53:22;;;;;;;18.47;8.87;;;;;;;5.22;63.36;99953.16;5011468;28;20718;-76
2022/03/04 04:55:48;;;;;;;20.73;9.47;;;;;;;4.96;63.24;99920.53;5016665;28;20199;-76
2022/03/04 04:58:17;;;;;;;24.20;12.60;;;;;;;5.09;62.10;99944.97;5022818;28;20204;-75
2022/03/04 05:00:45;;;;;;;14.47;8.83;;;;;;;5.20;62.49;99957.38;5024987;28;20207;-77
2022/03/04 05:03:12;;;;;;;20.30;10.83;;;;;;;4.89;62.69;99908.31;5014282;28;20247;-76
2022/03/04 05:05:40;;;;;;;28.17;11.43;;;;;;;5.15;62.19;99963.16;5019446;28;20591;-76
2022/03/04 05:08:07;;;;;;;19.93;11.40;;;;;;;5.06;63.38;99971.44;5014499;28;20195;-76
2022/03/04 05:10:33;;;;;;;26.23;12.30;;;;;;;4.87;62.85;99928.81;5012557;28;20710;-76
2022/03/04 05:13:00;;;;;;;25.43;11.50;;;;;;;5.01;62.34;99972.97;5025627;28;20200;-77
2022/03/04 05:15:28;;;;;;;24.80;11.30;;;;;;;5.13;62.53;99970.84;5015619;28;20201;-77
2022/03/04 05:17:55;;;;;;;18.03;7.73;;;;;;;5.12;62.60;99968.22;5029086;28;20192;-77
2022/03/04 05:20:22;;;;;;;16.80;8.73;;;;;;;5.00;62.30;99958.38;5032385;28;20205;-77
2022/03/04 05:22:49;;;;;;;26.53;14.07;;;;;;;5.02;61.91;99976.41;5017857;28;20231;-77
2022/03/04 05:25:16;;;;;;;27.00;15.03;;;;;;;5.08;61.92;99979.19;5021790;28;20199;-77
2022/03/04 05:27:43;;;;;;;33.10;15.30;;;;;;;4.94;62.30;99983.84;5032471;28;20206;-73
2022/03/04 05:30:10;;;;;;;23.97;12.60;;;;;;;4.99;66.28;99982.34;5026496;28;20185;-74
2022/03/04 05:32:39;;;;;;;22.37;12.07;;;;;;;5.02;67.93;99985.00;5023610;28;20200;-74
2022/03/04 05:35:07;;;;;;;21.97;11.17;;;;;;;5.01;69.97;99980.69;5023894;28;20192;-74
2022/03/04 05:37:34;;;;;;;27.60;14.47;;;;;;;4.72;70.17;99965.91;5031398;28;20648;-74
2022/03/04 05:40:01;;;;;;;28.80;14.27;;;;;;;4.75;70.52;99986.56;5017912;28;20188;-76
2022/03/04 05:42:28;;;;;;;32.93;14.20;;;;;;;4.78;70.26;99990.13;5019330;28;20652;-76
2022/03/04 05:44:54;;;;;;;34.30;15.03;;;;;;;4.78;70.91;99989.28;5021776;28;20200;-76
2022/03/04 05:47:21;;;;;;;34.47;16.10;;;;;;;4.85;70.91;99994.66;5022387;28;20678;-76
2022/03/04 05:49:50;;;;;;;49.80;16.83;;;;;;;4.76;69.90;99953.25;5012307;28;20204;-79
2022/03/04 05:52:16;;;;;;;32.17;14.93;;;;;;;5.07;69.51;99988.59;5012723;28;20291;-75
2022/03/04 05:54:43;;;;;;;40.83;16.63;;;;;;;5.20;69.35;100003.66;5011735;28;20554;-77
2022/03/04 05:57:10;;;;;;;30.37;16.57;;;;;;;5.21;68.30;100001.94;5014891;28;20192;-77
2022/03/04 05:59:37;;;;;;;35.83;17.17;;;;;;;5.29;67.89;100006.50;5030906;28;20207;-78
2022/03/04 06:02:04;;;;;;;29.77;16.33;;;;;;;5.40;66.82;100007.75;5024140;28;20188;-76
2022/03/04 06:04:31;;;;;;;30.97;15.17;;;;;;;5.34;68.00;100010.13;5026644;28;20196;-76
2022/03/04 06:06:59;;;;;;;36.03;16.90;;;;;;;4.96;68.65;99946.22;5017793;28;20197;-75
2022/03/04 06:09:28;;;;;;;29.10;16.23;;;;;;;5.45;69.65;99984.78;5011751;28;20203;-75
2022/03/04 06:11:55;;;;;;;25.77;14.03;;;;;;;5.75;67.84;100008.94;5011860;28;20200;-76
2022/03/04 06:14:22;;;;;;;36.50;17.90;;;;;;;5.77;66.37;100011.56;5012770;28;20197;-79
2022/03/04 06:16:49;;;;;;;35.80;15.70;;;;;;;5.81;66.86;100004.00;5023217;28;20667;-76
2022/03/04 06:19:16;;;;;;;50.07;17.07;;;;;;;6.09;66.35;100003.22;5032116;28;20219;-76
2022/03/04 06:21:42;;;;;;;38.27;15.53;;;;;;;6.20;64.85;100000.97;5015638;28;20200;-76
2022/03/04 06:24:11;;;;;;;34.97;16.13;;;;;;;6.19;62.75;100009.50;5033250;28;20227;-75
2022/03/04 06:26:38;;;;;;;21.00;12.20;;;;;;;6.12;62.42;100005.88;5032344;28;20203;-77
2022/03/04 06:29:04;;;;;;;28.13;14.30;;;;;;;6.22;68.43;100015.63;5033586;28;20275;-76
2022/03/04 06:31:31;;;;;;;40.33;18.50;;;;;;;6.14;81.85;100017.09;5020561;28;20193;-77
2022/03/04 06:33:58;;;;;;;37.40;16.30;;;;;;;6.23;82.39;100016.50;5014853;28;20212;-75
2022/03/04 06:36:25;;;;;;;68.60;26.73;;;;;;;6.18;82.03;100015.47;5023476;28;20196;-76
2022/03/04 06:38:52;;;;;;;54.10;22.47;;;;;;;6.26;82.87;100016.59;5035114;28;20205;-78
2022/03/04 06:41:20;;;;;;;49.80;18.77;;;;;;;6.21;81.09;100018.16;5034260;28;20202;-76
2022/03/04 06:43:48;;;;;;;62.80;24.53;;;;;;;6.31;79.33;100025.34;5014976;28;20667;-76
2022/03/04 06:46:16;;;;;;;108.90;39.80;;;;;;;6.45;78.79;100024.06;5021248;28;20620;-76
2022/03/04 06:48:43;;;;;;;52.80;23.07;;;;;;;6.47;75.38;100010.41;5035074;28;20644;-79
2022/03/04 06:51:10;;;;;;;39.10;18.07;;;;;;;6.19;73.38;99951.19;5034231;28;20196;-81
2022/03/04 06:53:36;;;;;;;44.50;20.17;;;;;;;6.60;72.06;100029.66;5034732;28;20204;-78
2022/03/04 06:56:04;;;;;;;37.00;15.90;;;;;;;6.61;70.46;100031.41;5034178;28;20608;-75
2022/03/04 06:58:32;;;;;;;32.40;14.20;;;;;;;6.49;66.15;99977.84;5034909;28;20199;-75
2022/03/04 07:00:59;;;;;;;39.13;18.40;;;;;;;7.07;75.87;100025.88;5031947;28;20676;-74
2022/03/04 07:03:26;;;;;;;30.80;15.13;;;;;;;7.02;64.82;100018.88;5032523;28;20239;-74
2022/03/04 07:05:53;;;;;;;29.50;15.23;;;;;;;7.12;64.81;100034.63;5034054;28;20199;-74
2022/03/04 07:08:19;;;;;;;27.00;14.70;;;;;;;7.15;63.73;100026.97;5034411;28;20625;-74
2022/03/04 07:10:47;;;;;;;31.90;16.63;;;;;;;7.19;62.17;100038.25;5034503;28;20204;-74
2022/03/04 07:13:15;;;;;;;27.07;14.10;;;;;;;7.01;61.45;100007.69;5034593;28;20200;-74
2022/03/04 07:15:43;;;;;;;24.50;13.23;;;;;;;7.24;58.93;100039.25;5034677;28;20200;-75
2022/03/04 07:18:10;;;;;;;28.00;14.53;;;;;;;7.27;61.47;100047.06;5034515;28;20199;-74
2022/03/04 07:20:39;;;;;;;31.33;18.03;;;;;;;7.19;66.45;100038.25;5034141;28;20209;-76
2022/03/04 07:23:05;;;;;;;28.23;15.23;;;;;;;7.20;65.97;100046.03;5034051;28;20236;-75
2022/03/04 07:25:32;;;;;;;26.53;14.10;;;;;;;6.82;66.21;100014.00;5034402;28;20196;-75
2022/03/04 07:28:00;;;;;;;31.17;15.67;;;;;;;7.24;63.40;100040.09;5034289;28;20200;-78
2022/03/04 07:30:26;;;;;;;26.27;13.37;;;;;;;7.34;59.96;100039.56;5034165;28;20642;-75
2022/03/04 07:32:55;;;;;;;29.30;13.50;;;;;;;7.40;59.86;100039.69;5034412;28;20208;-74
2022/03/04 07:35:22;;;;;;;27.90;13.17;;;;;;;7.34;58.91;100029.22;5033320;28;20199;-75
2022/03/04 07:37:49;;;;;;;27.40;12.07;;;;;;;7.23;56.96;99999.69;5033861;28;20287;-75
2022/03/04 07:40:16;;;;;;;23.33;12.63;;;;;;;7.25;57.09;100004.88;5034186;28;20227;-75
2022/03/04 07:42:44;;;;;;;34.87;13.43;;;;;;;7.54;58.14;100032.31;5033833;28;20281;-75
2022/03/04 07:45:11;;;;;;;34.93;13.97;;;;;;;7.58;57.58;100038.44;5033786;28;20204;-74
2022/03/04 07:47:39;;;;;;;28.67;12.60;;;;;;;7.35;57.98;100015.47;5033851;28;20231;-74
2022/03/04 07:50:10;;;;;;;37.80;16.53;;;;;;;7.72;57.91;100039.66;5033135;28;20858;-75
2022/03/04 07:52:37;;;;;;;77.77;27.63;;;;;;;7.54;57.37;99996.22;5033143;28;20203;-75
2022/03/04 07:55:07;;;;;;;34.53;16.47;;;;;;;7.37;56.35;99954.53;5033738;28;20589;-75
2022/03/04 07:57:34;;;;;;;41.73;17.00;;;;;;;7.97;53.67;100044.59;5033490;28;20188;-75
2022/03/04 08:00:01;;;;;;;37.50;16.77;;;;;;;7.92;52.87;100038.44;5033685;28;20674;-75
2022/03/04 08:02:28;;;;;;;30.10;13.57;;;;;;;7.92;53.62;100046.19;5033385;28;20203;-75
2022/03/04 08:04:55;;;;;;;32.33;11.57;;;;;;;7.95;52.62;100036.81;5032840;28;20203;-75
2022/03/04 08:07:23;;;;;;;26.80;12.23;;;;;;;8.13;53.23;100039.00;5033711;28;20288;-75
2022/03/04 08:09:50;;;;;;;21.93;11.63;;;;;;;7.95;52.33;100038.53;5033129;28;20243;-77
2022/03/04 08:12:17;;;;;;;30.47;13.47;;;;;;;8.04;51.28;100030.13;5022496;28;20665;-75
2022/03/04 08:14:44;;;;;;;27.57;11.27;;;;;;;8.02;51.23;100048.19;5018763;28;20204;-76
2022/03/04 08:17:11;;;;;;;20.77;11.17;;;;;;;7.85;48.72;100021.06;5015121;28;20200;-76
2022/03/04 08:19:39;;;;;;;24.63;11.83;;;;;;;7.98;49.80;100025.72;5013609;28;20185;-76
2022/03/04 08:22:06;;;;;;;23.30;12.17;;;;;;;8.19;49.31;100043.41;5013979;28;20284;-76
2022/03/04 08:24:34;;;;;;;21.43;11.70;;;;;;;8.21;48.90;100045.19;5022570;28;20221;-76
2022/03/04 08:27:02;;;;;;;22.87;10.50;;;;;;;7.97;48.67;100011.91;5020928;28;20228;-76
2022/03/04 08:29:29;;;;;;;20.20;9.97;;;;;;;8.20;48.19;100052.91;5013280;28;20193;-76
2022/03/04 08:31:56;;;;;;;24.70;10.97;;;;;;;8.16;49.03;100033.91;5029036;28;20197;-75
2022/03/04 08:34:24;;;;;;;23.37;11.37;;;;;;;8.23;49.87;100043.53;5031972;28;20199;-76
2022/03/04 08:36:50;;;;;;;23.50;11.40;;;;;;;8.31;50.19;100046.34;5032821;28;20203;-75
2022/03/04 08:39:17;;;;;;;21.67;10.43;;;;;;;8.02;49.78;100001.72;5032840;28;20206;-76
2022/03/04 08:41:46;;;;;;;23.00;12.10;;;;;;;8.35;50.12;100045.53;5017594;28;20316;-75
2022/03/04 08:44:13;;;;;;;18.83;10.47;;;;;;;8.08;50.49;100025.09;5013128;28;20669;-76
2022/03/04 08:46:39;;;;;;;22.27;8.23;;;;;;;8.10;49.13;100027.72;5012774;28;20669;-76
2022/03/04 08:49:07;;;;;;;24.00;12.73;;;;;;;8.21;48.22;100047.78;5013254;28;20197;-78
2022/03/04 08:51:33;;;;;;;18.40;9.97;;;;;;;8.15;47.39;100019.22;5024112;28;20189;-77
2022/03/04 08:54:00;;;;;;;24.53;11.50;;;;;;;8.05;47.79;100048.25;5012702;28;20619;-77
2022/03/04 08:56:27;;;;;;;24.53;11.90;;;;;;;8.30;48.04;100040.28;5012687;28;20193;-77
2022/03/04 08:58:55;;;;;;;28.90;12.60;;;;;;;8.61;48.38;100051.31;5012539;28;20678;-78
2022/03/04 09:01:22;;;;;;;27.57;12.13;;;;;;;8.48;47.44;100013.13;5014434;28;20219;-76
2022/03/04 09:03:49;;;;;;;21.77;11.73;;;;;;;8.79;47.94;100036.19;5032112;28;20286;-76
2022/03/04 09:06:16;;;;;;;27.37;11.70;;;;;;;8.99;48.78;100041.81;5013369;28;20197;-76
2022/03/04 09:08:42;;;;;;;24.03;13.83;;;;;;;9.06;47.23;100044.50;5020523;28;20600;-76
2022/03/04 09:11:09;;;;;;;27.07;12.83;;;;;;;9.24;47.93;100042.31;5031271;28;20192;-78
2022/03/04 09:13:36;;;;;;;27.40;14.50;;;;;;;9.19;49.89;100043.06;5012324;28;20205;-77
2022/03/04 09:16:05;;;;;;;55.67;25.97;;;;;;;9.16;48.90;100043.00;5012606;28;20255;-76
2022/03/04 09:18:32;;;;;;;29.67;14.17;;;;;;;9.31;47.73;100044.16;5017213;28;20689;-76
2022/03/04 09:20:59;;;;;;;30.33;13.73;;;;;;;9.33;47.29;100042.50;5031422;28;20203;-81
2022/03/04 09:23:26;;;;;;;34.40;13.93;;;;;;;9.52;47.52;100053.19;5031950;28;20281;-78
2022/03/04 09:25:53;;;;;;;25.95;11.23;;;;;;;9.42;50.76;100052.13;5031747;28;20693;-77
2022/03/04 09:28:20;;;;;;;23.17;11.70;;;;;;;9.12;52.72;100047.25;5026908;28;20254;-77
2022/03/04 09:30:47;;;;;;;25.97;13.27;;;;;;;8.94;48.12;100021.00;5012069;28;20682;-76
2022/03/04 09:33:15;;;;;;;27.70;14.37;;;;;;;8.66;47.51;99992.84;5011855;28;20683;-76
2022/03/04 09:35:42;;;;;;;24.50;13.13;;;;;;;9.04;47.35;100047.91;5027250;28;20192;-76
2022/03/04 09:38:09;;;;;;;27.17;14.63;;;;;;;9.10;48.21;100048.91;5029996;28;20195;-76
2022/03/04 09:40:36;;;;;;;32.67;16.87;;;;;;;9.18;49.70;100047.38;5031533;28;20199;-77
2022/03/04 09:43:06;;;;;;;26.93;13.93;;;;;;;8.87;51.23;100001.94;5031287;28;20196;-78
2022/03/04 09:45:33;;;;;;;15.57;8.53;;;;;;;9.17;51.02;100029.22;5011757;28;20219;-77
2022/03/04 09:48:01;;;;;;;21.90;12.80;;;;;;;8.88;52.37;99995.03;5011104;28;20239;-77
2022/03/04 09:50:30;;;;;;;22.97;11.00;;;;;;;9.07;52.66;100038.50;5010899;28;20200;-77
2022/03/04 09:52:57;;;;;;;17.03;9.37;;;;;;;8.71;53.87;100011.91;5010207;28;20259;-79
2022/03/04 09:55:24;;;;;;;20.83;11.70;;;;;;;8.36;53.14;99938.81;5011005;28;20189;-78
2022/03/04 09:57:51;;;;;;;18.77;10.33;;;;;;;8.76;51.55;100018.94;5011259;28;20197;-78
2022/03/04 10:00:17;;;;;;;28.13;13.80;;;;;;;8.79;51.45;100003.47;5022737;28;20199;-76
2022/03/04 10:02:44;;;;;;;29.37;13.03;;;;;;;9.15;49.77;100018.84;5026260;28;20196;-77
2022/03/04 10:05:11;;;;;;;21.37;11.43;;;;;;;9.25;48.91;100038.00;5013354;28;20221;-79
2022/03/04 10:07:42;;;;;;;33.00;15.20;;;;;;;9.32;49.20;100027.81;5026409;28;20207;-77
2022/03/04 10:10:14;;;;;;;27.43;15.00;;;;;;;9.30;49.42;100021.75;5029021;28;20193;-77
2022/03/04 10:12:48;;;;;;;57.77;28.83;;;;;;;9.02;50.15;99965.16;5030904;28;20196;-77
2022/03/04 10:15:15;;;;;;;124.40;59.03;;;;;;;9.40;51.39;100018.47;5030683;28;20288;-78
2022/03/04 10:17:42;;;;;;;27.27;13.70;;;;;;;9.02;50.86;100024.63;5030718;28;20666;-77
2022/03/04 10:20:12;;;;;;;25.97;14.90;;;;;;;9.08;51.81;100024.75;5026439;28;20200;-75
2022/03/04 10:22:45;;;;;;;30.87;15.73;;;;;;;9.10;50.91;99985.97;5030569;28;20275;-76
2022/03/04 10:25:19;;;;;;;34.27;14.10;;;;;;;9.51;50.27;100017.81;5030365;28;20231;-76
2022/03/04 10:27:47;;;;;;;34.65;16.75;;;;;;;9.53;49.44;100011.78;5010710;28;20196;-76
2022/03/04 10:30:14;;;;;;;31.85;17.23;;;;;;;9.85;49.90;100007.16;5029256;28;20196;-75
2022/03/04 10:32:41;;;;;;;38.40;17.60;;;;;;;10.03;49.20;100010.06;5030716;28;20258;-75
2022/03/04 10:35:09;;;;;;;35.60;18.55;;;;;;;9.69;48.57;100012.94;5013745;28;20683;-74
2022/03/04 10:37:43;;;;;;;34.28;18.15;;;;;;;9.79;49.67;100000.19;5010553;28;20200;-74
2022/03/04 10:40:12;;;;;;;35.80;18.77;;;;;;;9.73;48.97;99986.28;5028486;28;20196;-75
2022/03/04 10:42:41;;;;;;;39.72;19.83;;;;;;;9.99;49.35;100010.00;5027982;28;20198;-76
2022/03/04 10:45:10;;;;;;;28.48;15.30;;;;;;;9.55;49.33;99993.72;5030304;28;20232;-75
2022/03/04 10:47:41;;;;;;;24.70;13.32;;;;;;;9.41;47.92;100015.06;4988177;28;1213963;-75
2022/03/04 10:50:09;;;;;;;26.58;13.07;;;;;;;9.67;47.91;100007.72;5012530;28;20232;-75
2022/03/04 10:52:50;;;;;;;30.80;15.75;;;;;;;9.83;47.46;100001.09;5011861;28;20228;-75
2022/03/04 10:55:34;;;;;;;29.10;15.88;;;;;;;10.04;46.94;99993.69;5026657;28;20685;-75
2022/03/04 10:58:03;;;;;;;29.58;15.68;;;;;;;10.27;45.62;99989.72;5030602;28;20270;-75
2022/03/04 11:00:32;;;;;;;34.60;14.75;;;;;;;10.26;46.81;99995.78;5011192;28;20204;-74
2022/03/04 11:03:00;;;;;;;31.38;13.75;;;;;;;10.16;46.52;99982.69;5026685;28;20193;-76
2022/03/04 11:05:27;;;;;;;27.73;14.43;;;;;;;10.53;45.05;99990.09;5032513;28;20239;-75
2022/03/04 11:07:56;;;;;;;29.48;15.93;;;;;;;10.58;44.44;99987.59;5034510;28;20651;-75
2022/03/04 11:10:23;;;;;;;27.52;15.00;;;;;;;10.65;43.93;99974.72;5033818;28;20581;-75
2022/03/04 11:12:54;;;;;;;36.65;16.45;;;;;;;11.11;43.29;99973.53;5034214;28;20215;-77
2022/03/04 11:15:22;;;;;;;31.17;15.35;;;;;;;10.95;43.15;99950.91;5014575;28;20259;-75
2022/03/04 11:17:50;;;;;;;33.58;15.85;;;;;;;10.65;44.01;99968.66;5015406;28;20232;-76
2022/03/04 11:20:18;;;;;;;31.83;18.23;;;;;;;10.98;43.07;99976.88;5014197;28;20642;-75
2022/03/04 11:22:49;;;;;;;27.85;14.07;;;;;;;10.86;42.28;99932.63;5033960;28;20199;-74